Time;durP1;ratioP1;P1;durP2;ratioP2;P2;SDS_P1;SDS_P2;PMS_P1;PMS_P2;Temp;Humidity;BMP_temperature;BMP_pressure;BME280_temperature;BME280_humidity;BME280_pressure;Samples;Min_cycle;Max_cycle;Signal;HPM_P1;HPM_P2
2022/01/29 03:02:26;;;;;;;;;;;;;;;3.29;69.04;99612.97;4700985;30;20035;-67
2022/01/29 03:04:56;;;;;;;;;;;;;;;3.28;67.65;99609.38;4683257;30;19988;-67
2022/01/29 03:07:23;;;;;;;;;;;;;;;3.26;65.43;99610.81;4684491;30;20052;-67
2022/01/29 03:09:51;;;;;;;;;;;;;;;3.25;67.00;99618.28;4689093;30;20260;-67
2022/01/29 03:12:18;;;;;;;;;;;;;;;3.30;62.02;99607.09;4703053;30;19961;-67
2022/01/29 03:14:45;;;;;;;;;;;;;;;3.37;60.72;99614.13;4689950;30;20273;-67
2022/01/29 03:17:13;;;;;;;;;;;;;;;3.41;nan;99621.47;4685441;30;20356;-67
2022/01/29 03:19:40;;;;;;;;;;;;;;;3.45;58.08;99621.66;4685520;30;20264;-67
2022/01/29 03:22:07;;;;;;;;;;;;;;;3.46;57.03;99617.75;4686203;30;19947;-67
2022/01/29 03:24:35;;;;;;;;;;;;;;;3.47;57.60;99627.69;4685914;30;19969;-67
2022/01/29 03:27:02;;;;;;;;;;;;;;;3.43;57.34;99634.97;4685837;30;19974;-67
2022/01/29 03:29:30;;;;;;;;;;;;;;;3.43;57.76;99627.50;4685929;30;19958;-67
2022/01/29 03:31:57;;;;;;;;;;;;;;;3.45;57.14;99632.72;4685842;30;19961;-67
2022/01/29 03:34:24;;;;;;;;;;;;;;;3.45;57.93;99627.97;4686133;30;19964;-67
2022/01/29 03:36:55;;;;;;;;;;;;;;;3.47;56.72;99625.75;4685144;30;20390;-67
2022/01/29 03:39:26;;;;;;;;;;;;;;;3.48;56.73;99621.81;4685614;30;19960;-67
2022/01/29 03:41:59;;;;;;;;;;;;;;;3.50;57.76;99627.84;4670189;30;19955;-67
2022/01/29 03:44:27;;;;;;;;;;;;;;;3.50;57.58;99630.59;4684977;30;19955;-67
2022/01/29 03:46:54;;;;;;;;;;;;;;;3.49;57.39;99629.00;4685287;30;19977;-67
2022/01/29 03:49:21;;;;;;;;;;;;;;;3.49;57.86;99629.00;4685328;30;20356;-67
2022/01/29 03:51:49;;;;;;;;;;;;;;;3.51;60.18;99623.97;4682550;30;20394;-67
2022/01/29 03:54:16;;;;;;;;;;;;;;;3.48;61.05;99621.81;4686473;30;19958;-67
2022/01/29 03:56:44;;;;;;;;;;;;;;;3.51;61.35;99612.06;4685346;30;20287;-67
2022/01/29 03:59:11;;;;;;;;;;;;;;;3.52;62.02;99631.09;4684812;30;20404;-67
2022/01/29 04:01:38;;;;;;;;;;;;;;;3.53;63.19;99616.16;4684248;30;19962;-67
2022/01/29 04:04:06;;;;;;;;;;;;;;;3.68;64.10;99617.66;4684813;30;19975;-67
2022/01/29 04:06:33;;;;;;;;;;;;;;;3.72;63.75;99615.88;4684902;30;19971;-67
2022/01/29 04:09:05;;;;;;;;;;;;;;;3.78;64.01;99625.66;4684291;30;19994;-67
2022/01/29 04:11:37;;;;;;;;;;;;;;;3.73;67.46;99612.81;4687867;30;19964;-67
2022/01/29 04:14:13;;;;;;;;;;;;;;;3.68;68.32;99610.19;4684682;30;19962;-67
2022/01/29 04:16:41;;;;;;;;;;;;;;;3.73;68.50;99607.28;4681642;30;19989;-67
2022/01/29 04:19:08;;;;;;;;;;;;;;;3.77;69.97;99610.19;4685051;30;20401;-67
2022/01/29 04:21:36;;;;;;;;;;;;;;;3.72;70.48;99610.34;4685375;30;19953;-67
2022/01/29 04:24:03;;;;;;;;;;;;;;;3.60;71.92;99601.84;4683987;30;20260;-67
2022/01/29 04:26:34;;;;;;;;;;;;;;;3.53;70.67;99609.78;4684124;30;20259;-67
2022/01/29 04:29:03;;;;;;;;;;;;;;;3.48;69.39;99613.53;4669814;30;19970;-67
2022/01/29 04:31:39;;;;;;;;;;;;;;;3.33;66.63;99602.09;4685051;30;19958;-67
2022/01/29 04:34:06;;;;;;;;;;;;;;;3.28;64.37;99612.13;4669389;30;19958;-67
2022/01/29 04:36:34;;;;;;;;;;;;;;;3.23;66.22;99603.97;4684372;30;19961;-67
2022/01/29 04:39:01;;;;;;;;;;;;;;;3.23;64.68;99617.81;4684233;30;19955;-67
2022/01/29 04:41:29;;;;;;;;;;;;;;;3.21;62.72;99622.00;4684624;30;20531;-67
2022/01/29 04:43:57;;;;;;;;;;;;;;;3.24;61.54;99613.91;4685169;30;19955;-67
2022/01/29 04:46:25;;;;;;;;;;;;;;;3.31;61.80;99605.97;4684983;30;20360;-67
2022/01/29 04:48:53;;;;;;;;;;;;;;;3.28;62.55;99605.78;4686188;30;19978;-67
2022/01/29 04:51:21;;;;;;;;;;;;;;;3.25;60.95;99607.25;4687251;30;20041;-67
2022/01/29 04:53:48;;;;;;;;;;;;;;;3.23;61.85;99615.03;4688210;30;19956;-67
2022/01/29 04:56:15;;;;;;;;;;;;;;;3.19;61.91;99610.47;4688724;30;19961;-67
2022/01/29 04:58:43;;;;;;;;;;;;;;;3.16;64.54;99608.31;4687334;30;19967;-67
2022/01/29 05:01:11;;;;;;;;;;;;;;;3.15;67.31;99602.00;4688341;30;20254;-67
2022/01/29 05:03:38;;;;;;;;;;;;;;;3.19;67.77;99602.16;4705131;30;20308;-67
2022/01/29 05:06:09;;;;;;;;;;;;;;;3.18;67.12;99601.34;4705524;30;19954;-68
2022/01/29 05:08:37;;;;;;;;;;;;;;;3.16;68.27;99614.69;4705578;30;19978;-67
2022/01/29 05:11:06;;;;;;;;;;;;;;;3.14;69.40;99610.59;4705202;30;19953;-67
2022/01/29 05:13:36;;;;;;;;;;;;;;;3.18;69.34;99606.06;4701421;30;20561;-67
2022/01/29 05:27:10;;;;;;;;;;;;;;;3.37;64.39;99630.72;4688027;30;19960;-67
2022/01/29 05:29:37;;;;;;;;;;;;;;;3.41;63.41;99635.28;4687685;30;19967;-67
2022/01/29 05:32:06;;;;;;;;;;;;;;;3.41;65.01;99635.28;4693943;30;19964;-67
2022/01/29 05:34:35;;;;;;;;;;;;;;;3.38;65.63;99626.81;4688171;30;20444;-67
2022/01/29 05:37:02;;;;;;;;;;;;;;;3.39;67.98;99625.69;4687774;30;19967;-67
2022/01/29 05:39:30;;;;;;;;;;;;;;;3.38;66.64;99630.38;4687236;30;19957;-67
2022/01/29 05:41:58;;;;;;;;;;;;;;;3.38;64.84;99632.34;4687669;30;20370;-67
2022/01/29 05:44:26;;;;;;;;;;;;;;;3.30;68.63;99626.44;4687414;30;19952;-67
2022/01/29 05:46:53;;;;;;;;;;;;;;;3.22;70.50;99623.66;4687348;30;19968;-67
2022/01/29 05:49:21;;;;;;;;;;;;;;;3.13;72.79;99617.28;4704689;30;19989;-67
2022/01/29 05:51:48;;;;;;;;;;;;;;;3.09;71.51;99624.56;4705062;30;19957;-67
2022/01/29 05:54:16;;;;;;;;;;;;;;;3.13;70.56;99628.34;4704847;30;19961;-67
2022/01/29 05:56:43;;;;;;;;;;;;;;;3.20;68.48;99629.47;4704729;30;20388;-67
2022/01/29 05:59:11;;;;;;;;;;;;;;;3.23;66.37;99628.84;4689108;30;20336;-67
2022/01/29 06:01:38;;;;;;;;;;;;;;;3.29;65.45;99640.59;4704193;30;19958;-68
2022/01/29 06:04:06;;;;;;;;;;;;;;;3.33;65.40;99636.88;4688961;30;19986;-67
2022/01/29 06:06:33;;;;;;;;;;;;;;;3.36;64.63;99634.59;4687516;30;19958;-67
2022/01/29 06:09:04;;;;;;;;;;;;;;;3.33;65.50;99635.28;4687239;30;19981;-67
2022/01/29 06:11:32;;;;;;;;;;;;;;;3.34;67.51;99626.66;4686914;30;19965;-67
2022/01/29 06:14:00;;;;;;;;;;;;;;;3.31;69.29;99633.63;4687210;30;19953;-67
2022/01/29 06:16:28;;;;;;;;;;;;;;;3.28;71.38;99628.72;4686136;30;19969;-67
2022/01/29 06:18:55;;;;;;;;;;;;;;;3.33;73.23;99636.88;4686527;30;19964;-67
2022/01/29 06:21:23;;;;;;;;;;;;;;;3.29;71.13;99646.94;4687043;30;19963;-67
2022/01/29 06:23:51;;;;;;;;;;;;;;;3.20;72.05;99648.03;4686209;30;19990;-67
2022/01/29 06:26:18;;;;;;;;;;;;;;;3.18;73.09;99642.00;4688543;30;19959;-67
2022/01/29 06:28:45;;;;;;;;;;;;;;;3.05;72.48;99646.50;4686641;30;19973;-67
2022/01/29 06:31:13;;;;;;;;;;;;;;;2.94;72.11;99655.34;4669620;30;20256;-67
2022/01/29 06:33:40;;;;;;;;;;;;;;;2.84;69.73;99667.44;4685238;30;19981;-67
2022/01/29 06:36:07;;;;;;;;;;;;;;;2.86;64.88;99665.19;4686299;30;20378;-67
2022/01/29 06:38:35;;;;;;;;;;;;;;;2.83;68.61;99665.84;4686071;30;19953;-67
2022/01/29 06:41:03;;;;;;;;;;;;;;;2.73;74.70;99673.53;4686777;30;19967;-68
2022/01/29 06:43:31;;;;;;;;;;;;;;;2.69;76.85;99667.81;4686934;30;19969;-67
2022/01/29 06:45:58;;;;;;;;;;;;;;;2.75;71.50;99674.88;4690722;30;19960;-67
2022/01/29 06:48:25;;;;;;;;;;;;;;;2.81;69.00;99673.63;4693392;30;19982;-67
2022/01/29 06:50:53;;;;;;;;;;;;;;;2.86;67.56;99673.47;4685326;30;19956;-67
2022/01/29 06:53:20;;;;;;;;;;;;;;;2.90;69.77;99680.03;4703012;30;19960;-67
2022/01/29 06:55:47;;;;;;;;;;;;;;;2.95;70.18;99690.94;4700919;30;20272;-67
2022/01/29 06:58:15;;;;;;;;;;;;;;;2.80;73.20;99683.03;4686214;30;20254;-67
2022/01/29 07:01:02;;;;;;;;;;;;;;;2.77;71.79;99689.19;4686046;30;19956;-67
2022/01/29 07:03:30;;;;;;;;;;;;;;;2.79;70.61;99697.16;4687310;30;19976;-67
2022/01/29 07:05:57;;;;;;;;;;;;;;;2.84;72.04;99697.84;4686684;30;19968;-67
2022/01/29 07:08:24;;;;;;;;;;;;;;;2.57;81.61;99695.16;4685382;30;20422;-67
2022/01/29 07:10:52;;;;;;;;;;;;;;;2.63;81.67;99697.53;4698933;30;19965;-67
2022/01/29 07:13:21;;;;;;;;;;;;;;;2.84;82.04;99700.59;4687468;30;19951;-67
2022/01/29 07:15:48;;;;;;;;;;;;;;;3.00;82.35;99710.16;4694803;30;20352;-67
2022/01/29 07:18:15;;;;;;;;;;;;;;;3.50;78.14;99719.09;4703043;30;20283;-67
2022/01/29 07:20:43;;;;;;;;;;;;;;;3.96;73.66;99721.44;4699865;30;19991;-67
2022/01/29 07:23:10;;;;;;;;;;;;;;;5.07;63.80;99710.53;4684816;30;19956;-67
2022/01/29 07:25:37;;;;;;;;;;;;;;;6.52;58.63;99700.88;4684704;30;19990;-67
2022/01/29 07:28:04;;;;;;;;;;;;;;;8.74;53.06;99710.72;4684173;30;20282;-68
2022/01/29 07:30:32;;;;;;;;;;;;;;;10.28;46.51;99715.47;4685388;30;19991;-67
2022/01/29 07:32:59;;;;;;;;;;;;;;;12.06;41.99;99725.34;4686300;30;20772;-68
2022/01/29 07:35:27;;;;;;;;;;;;;;;14.42;36.65;99719.34;4683460;30;19974;-68
2022/01/29 07:37:54;;;;;;;;;;;;;;;16.46;32.31;99727.13;4684417;30;20242;-68
2022/01/29 07:40:21;;;;;;;;;;;;;;;18.33;27.08;99733.84;4693089;30;19959;-68
2022/01/29 07:42:49;;;;;;;;;;;;;;;19.96;23.50;99743.56;4685850;30;19953;-68
2022/01/29 07:45:16;;;;;;;;;;;;;;;21.36;23.12;99754.72;4688615;30;19957;-68
2022/01/29 07:47:43;;;;;;;;;;;;;;;22.25;20.97;99754.50;4688698;30;19958;-69
2022/01/29 07:50:10;;;;;;;;;;;;;;;23.36;20.24;99756.28;4687420;30;20258;-68
2022/01/29 07:52:38;;;;;;;;;;;;;;;24.37;20.80;99756.59;4687618;30;19959;-68
2022/01/29 07:55:05;;;;;;;;;;;;;;;25.17;19.48;99747.41;4688880;30;19951;-69
2022/01/29 07:57:33;;;;;;;;;;;;;;;26.06;18.58;99750.72;4687286;30;19960;-69
2022/01/29 08:00:00;;;;;;;;;;;;;;;25.87;16.50;99749.00;4685947;30;19958;-69
2022/01/29 08:02:27;;;;;;;;;;;;;;;27.06;16.51;99749.16;4683902;30;19984;-69
2022/01/29 08:04:55;;;;;;;;;;;;;;;27.56;15.76;99762.16;4684816;30;19965;-69
2022/01/29 08:07:22;;;;;;;;;;;;;;;28.42;15.46;99769.28;4686177;30;20228;-69
2022/01/29 08:09:49;;;;;;;;;;;;;;;29.08;16.02;99775.09;4686219;30;19964;-69
2022/01/29 08:12:17;;;;;;;;;;;;;;;29.36;15.90;99776.56;4686075;30;19956;-69
2022/01/29 08:14:44;;;;;;;;;;;;;;;29.80;14.45;99780.44;4685469;30;19954;-69
2022/01/29 08:17:11;;;;;;;;;;;;;;;30.27;14.21;99776.63;4683589;30;19960;-69
2022/01/29 08:19:39;;;;;;;;;;;;;;;30.60;13.62;99782.19;4684115;30;19958;-69
2022/01/29 08:22:06;;;;;;;;;;;;;;;30.79;13.55;99779.91;4685279;30;19953;-68
2022/01/29 08:24:33;;;;;;;;;;;;;;;30.69;13.92;99781.31;4687074;30;19950;-69
2022/01/29 08:27:01;;;;;;;;;;;;;;;31.19;14.17;99791.59;4687426;30;20028;-69
2022/01/29 08:29:28;;;;;;;;;;;;;;;31.35;13.58;99790.25;4684886;30;19971;-69
2022/01/29 08:31:55;;;;;;;;;;;;;;;31.44;13.67;99798.81;4684480;30;20026;-69
2022/01/29 08:34:23;;;;;;;;;;;;;;;30.88;14.11;99788.44;4689588;30;19965;-69
2022/01/29 08:36:50;;;;;;;;;;;;;;;30.41;14.17;99796.06;4688928;30;20333;-69
2022/01/29 08:39:17;;;;;;;;;;;;;;;28.13;16.09;99782.59;4690524;30;19954;-69
2022/01/29 08:41:45;;;;;;;;;;;;;;;25.20;18.15;99778.00;4693087;30;19983;-69
2022/01/29 08:44:12;;;;;;;;;;;;;;;22.82;18.92;99776.81;4686015;30;20356;-69
2022/01/29 08:46:39;;;;;;;;;;;;;;;20.32;21.35;99772.31;4697082;30;19986;-69
2022/01/29 08:49:07;;;;;;;;;;;;;;;18.63;23.04;99770.09;4687342;30;19973;-69
2022/01/29 08:51:34;;;;;;;;;;;;;;;17.05;24.56;99774.34;4698921;30;20252;-69
2022/01/29 08:54:02;;;;;;;;;;;;;;;16.34;25.51;99770.66;4690214;30;19958;-69
2022/01/29 08:56:30;;;;;;;;;;;;;;;15.85;28.44;99762.88;4684220;30;19961;-68
2022/01/29 08:58:57;;;;;;;;;;;;;;;15.19;27.05;99760.50;4685107;30;20254;-69
2022/01/29 09:01:24;;;;;;;;;;;;;;;14.69;27.16;99754.56;4669390;30;19956;-69
2022/01/29 09:03:52;;;;;;;;;;;;;;;14.34;27.59;99754.22;4684666;30;19989;-68
2022/01/29 09:06:19;;;;;;;;;;;;;;;14.01;29.08;99755.06;4685205;30;20274;-68
2022/01/29 09:08:50;;;;;;;;;;;;;;;13.73;29.41;99754.75;4695275;30;19947;-68
2022/01/29 09:11:18;;;;;;;;;;;;;;;13.41;29.26;99748.75;4682184;30;19961;-69
2022/01/29 09:13:46;;;;;;;;;;;;;;;13.20;30.10;99756.06;4685936;30;19956;-68
2022/01/29 09:16:13;;;;;;;;;;;;;;;12.88;31.52;99750.78;4684187;30;19958;-68
2022/01/29 09:18:40;;;;;;;;;;;;;;;12.66;31.93;99748.81;4684358;30;19952;-70
2022/01/29 09:21:08;;;;;;;;;;;;;;;12.35;32.83;99741.50;4682874;30;19956;-71
2022/01/29 09:23:36;;;;;;;;;;;;;;;12.16;33.55;99738.75;4686333;30;19950;-71
2022/01/29 09:26:03;;;;;;;;;;;;;;;12.05;34.37;99743.38;4695235;30;19965;-68
2022/01/29 09:28:30;;;;;;;;;;;;;;;11.92;34.63;99729.88;4688889;30;20362;-68
2022/01/29 09:30:58;;;;;;;;;;;;;;;11.76;35.44;99736.41;4682144;30;19970;-68
2022/01/29 09:33:25;;;;;;;;;;;;;;;11.70;35.55;99740.69;4688878;30;19957;-68
2022/01/29 09:35:53;;;;;;;;;;;;;;;11.54;35.95;99733.53;4692895;30;20029;-68
2022/01/29 09:38:20;;;;;;;;;;;;;;;11.50;35.60;99738.25;4700339;30;19956;-68
2022/01/29 09:40:47;;;;;;;;;;;;;;;11.43;36.04;99738.91;4692016;30;19961;-68
2022/01/29 09:43:15;;;;;;;;;;;;;;;11.33;35.85;99741.47;4694689;30;19958;-68
2022/01/29 09:45:43;;;;;;;;;;;;;;;11.28;35.35;99747.38;4693392;30;19959;-68
2022/01/29 09:48:11;;;;;;;;;;;;;;;11.23;34.78;99742.88;4694893;30;19964;-68
2022/01/29 09:50:38;;;;;;;;;;;;;;;11.20;35.30;99749.19;4687151;30;19994;-68
2022/01/29 09:53:06;;;;;;;;;;;;;;;11.14;35.51;99745.09;4700740;30;19955;-67
2022/01/29 09:55:34;;;;;;;;;;;;;;;11.17;35.69;99752.75;4697638;30;19958;-68
2022/01/29 09:58:02;;;;;;;;;;;;;;;11.10;35.94;99747.00;4693288;30;19953;-68
2022/01/29 10:00:29;;;;;;;;;;;;;;;11.09;36.03;99745.38;4700828;30;19957;-68
2022/01/29 10:03:11;;;;;;;;;;;;;;;11.04;36.07;99752.06;4698275;30;19958;-68
2022/01/29 10:05:40;;;;;;;;;;;;;;;11.10;36.09;99752.59;4689429;30;19964;-68
2022/01/29 10:08:08;;;;;;;;;;;;;;;11.08;36.93;99750.16;4694824;30;19964;-68
2022/01/29 10:10:42;;;;;;;;;;;;;;;11.14;37.51;99751.50;4695262;30;20279;-68
2022/01/29 10:13:28;;;;;;;;;;;;;;;11.10;36.83;99747.00;4699309;30;19961;-68
2022/01/29 10:16:34;;;;;;;;;;;;;;;11.16;37.75;99737.13;4696835;30;19962;-68
2022/01/29 10:19:01;;;;;;;;;;;;;;;11.15;36.67;99736.31;4623337;31;19957;-68
2022/01/29 10:21:30;;;;;;;;;;;;;;;11.00;36.70;99736.38;4633688;31;19969;-68
2022/01/29 10:24:12;;;;;;;;;;;;;;;11.10;36.92;99735.81;4652198;30;19955;-68
2022/01/29 10:26:47;;;;;;;;;;;;;;;11.02;38.65;99734.84;4669287;30;19966;-68
2022/01/29 10:29:19;;;;;;;;;;;;;;;10.96;42.77;99724.28;4669964;30;20377;-68
2022/01/29 10:31:46;;;;;;;;;;;;;;;10.97;40.84;99723.13;4669775;30;19976;-68
2022/01/29 10:34:14;;;;;;;;;;;;;;;10.96;41.17;99704.69;4669663;30;19953;-68
2022/01/29 10:36:42;;;;;;;;;;;;;;;11.03;41.41;99702.84;4669398;30;19967;-68
2022/01/29 10:39:09;;;;;;;;;;;;;;;11.03;40.84;99696.44;4669847;30;19986;-68
2022/01/29 10:41:36;;;;;;;;;;;;;;;11.08;41.29;99688.56;4668499;30;19964;-67
2022/01/29 10:46:43;;;;;;;;;;;;;;;10.79;40.52;99677.13;4667945;30;20357;-68
2022/01/29 10:49:39;;;;;;;;;;;;;;;10.88;43.02;99674.94;4668418;30;20249;-68
2022/01/29 10:52:08;;;;;;;;;;;;;;;10.79;46.13;99683.53;4667556;30;20478;-68
2022/01/29 10:54:37;;;;;;;;;;;;;;;10.85;48.32;99672.88;4668269;30;19959;-68
2022/01/29 10:57:06;;;;;;;;;;;;;;;10.76;49.84;99673.06;4668335;30;20344;-68
2022/01/29 10:59:35;;;;;;;;;;;;;;;10.53;52.77;99670.16;4667669;30;19985;-68
2022/01/29 11:02:03;;;;;;;;;;;;;;;10.25;46.31;99671.47;4667139;30;19961;-68
2022/01/29 11:04:32;;;;;;;;;;;;;;;10.36;48.59;99669.75;4667506;30;19980;-68
2022/01/29 11:07:03;;;;;;;;;;;;;;;10.18;46.80;99660.09;4678732;30;19964;-68
2022/01/29 11:09:31;;;;;;;;;;;;;;;10.15;47.42;99666.44;4685265;30;19957;-68
2022/01/29 11:12:01;;;;;;;;;;;;;;;10.29;50.71;99656.41;4684718;30;19983;-68
2022/01/29 11:14:30;;;;;;;;;;;;;;;10.43;52.07;99667.13;4687740;30;19963;-68
2022/01/29 11:16:58;;;;;;;;;;;;;;;10.15;64.47;99667.22;4683937;30;19955;-68
2022/01/29 11:19:25;;;;;;;;;;;;;;;9.95;70.72;99659.94;4684342;30;19953;-68
2022/01/29 11:21:53;;;;;;;;;;;;;;;10.03;72.33;99647.75;4684796;30;20387;-68
2022/01/29 11:24:22;;;;;;;;;;;;;;;9.87;81.41;99641.34;4684316;30;19958;-68
2022/01/29 11:26:50;;;;;;;;;;;;;;;9.63;84.75;99636.75;4691339;30;19953;-68
2022/01/29 11:29:24;;;;;;;;;;;;;;;9.96;83.35;99627.19;4684214;30;19988;-68
2022/01/29 11:32:10;;;;;;;;;;;;;;;9.35;88.39;99641.56;4684151;30;19972;-68
2022/01/29 11:34:58;;;;;;;;;;;;;;;9.78;87.19;99637.94;4683856;30;19956;-68
2022/01/29 11:37:45;;;;;;;;;;;;;;;9.73;88.39;99630.63;4684653;30;19988;-67
2022/01/29 11:40:13;;;;;;;;;;;;;;;9.98;84.16;99620.06;4683719;30;20292;-67
2022/01/29 11:42:53;;;;;;;;;;;;;;;10.19;83.16;99617.00;4683564;30;19963;-67
2022/01/29 11:45:39;;;;;;;;;;;;;;;10.23;83.53;99603.91;4906012;25;20349;-69
2022/01/29 11:48:29;;;;;;;;;;;;;;;10.24;83.37;99605.56;4679562;30;19972;-69
2022/01/29 11:50:57;;;;;;;;;;;;;;;9.93;79.88;99605.56;4672385;30;19975;-67
2022/01/29 11:53:26;;;;;;;;;;;;;;;9.75;80.95;99602.34;4683625;30;20386;-68
2022/01/29 11:55:54;;;;;;;;;;;;;;;9.74;82.26;99601.53;4684129;30;19985;-68
2022/01/29 11:58:23;;;;;;;;;;;;;;;9.73;79.04;99591.50;4682718;30;19960;-69
2022/01/29 12:00:51;;;;;;;;;;;;;;;9.70;75.21;99595.03;4683148;30;19966;-69
2022/01/29 12:03:41;;;;;;;;;;;;;;;9.79;74.92;99598.47;4684082;30;19969;-70
2022/01/29 12:06:10;;;;;;;;;;;;;;;9.66;77.64;99585.75;4684077;30;20360;-69
2022/01/29 12:08:57;;;;;;;;;;;;;;;9.87;76.98;99597.47;4683888;30;19954;-69
2022/01/29 12:11:25;;;;;;;;;;;;;;;10.04;77.72;99584.28;4684853;30;20256;-68
2022/01/29 12:14:11;;;;;;;;;;;;;;;10.04;78.67;99575.91;4684130;30;19964;-69
2022/01/29 12:16:47;;;;;;;;;;;;;;;9.77;80.13;99564.50;4684615;30;19963;-68
2022/01/29 12:19:33;;;;;;;;;;;;;;;9.46;82.24;99563.69;4679972;30;19955;-68
2022/01/29 12:22:07;;;;;;;;;;;;;;;9.58;82.16;99556.03;4673544;30;19973;-69
2022/01/29 12:24:34;;;;;;;;;;;;;;;9.53;82.29;99547.94;4677090;30;19956;-66
2022/01/29 12:27:02;;;;;;;;;;;;;;;9.38;81.86;99548.75;4685249;30;20341;-67
2022/01/29 12:29:32;;;;;;;;;;;;;;;9.20;81.52;99548.28;4682182;30;20293;-68
2022/01/29 12:31:59;;;;;;;;;;;;;;;9.26;80.54;99543.25;4683340;30;19960;-69
2022/01/29 12:34:28;;;;;;;;;;;;;;;9.29;82.49;99530.53;4680997;30;19964;-68
2022/01/29 12:37:09;;;;;;;;;;;;;;;9.51;81.99;99524.34;4689683;30;19966;-68
2022/01/29 12:39:40;;;;;;;;;;;;;;;9.55;82.34;99525.22;4687558;30;19962;-68
2022/01/29 12:44:42;;;;;;;;;;;;;;;9.06;83.74;99511.63;4682712;30;19957;-69
2022/01/29 12:47:23;;;;;;;;;;;;;;;9.18;81.23;99507.94;4682923;30;20534;-68
2022/01/29 12:49:52;;;;;;;;;;;;;;;9.34;80.86;99505.94;4679663;30;19959;-68
2022/01/29 12:52:19;;;;;;;;;;;;;;;9.38;87.69;99506.03;4678570;30;19966;-68
2022/01/29 12:54:51;;;;;;;;;;;;;;;9.38;89.46;99506.88;4678319;30;19961;-69
2022/01/29 12:57:18;;;;;;;;;;;;;;;9.48;84.06;99511.91;4679187;30;20349;-67
2022/01/29 12:59:46;;;;;;;;;;;;;;;9.43;83.03;99508.56;4681947;30;19990;-69
2022/01/29 13:02:26;;;;;;;;;;;;;;;9.52;86.64;99503.59;4680718;30;19970;-69
2022/01/29 13:04:58;;;;;;;;;;;;;;;9.56;90.66;99491.34;4681959;30;20252;-68
2022/01/29 13:07:26;;;;;;;;;;;;;;;9.49;91.61;99485.59;4683264;30;19953;-68
2022/01/29 13:09:54;;;;;;;;;;;;;;;9.51;94.16;99476.88;4684036;30;19957;-68
2022/01/29 13:12:21;;;;;;;;;;;;;;;9.54;94.43;99471.34;4689002;30;19968;-69
2022/01/29 13:14:49;;;;;;;;;;;;;;;9.61;89.08;99473.53;4689166;30;19959;-66
2022/01/29 13:17:19;;;;;;;;;;;;;;;9.64;89.22;99470.81;4684540;30;19964;-68
2022/01/29 13:19:47;;;;;;;;;;;;;;;9.64;88.77;99475.56;4678487;30;20367;-68
2022/01/29 13:22:15;;;;;;;;;;;;;;;9.68;88.83;99473.69;4684271;30;19996;-68
2022/01/29 13:24:44;;;;;;;;;;;;;;;9.55;89.13;99456.22;4683014;30;19966;-69
2022/01/29 13:27:16;;;;;;;;;;;;;;;9.58;88.32;99455.50;4685046;30;19954;-69
2022/01/29 13:29:48;;;;;;;;;;;;;;;9.46;81.85;99447.25;4683613;30;19961;-69
2022/01/29 13:32:26;;;;;;;;;;;;;;;9.48;77.67;99450.47;4685721;30;19961;-69
2022/01/29 13:34:53;;;;;;;;;;;;;;;9.35;70.01;99442.56;4682848;30;20248;-69
2022/01/29 13:37:27;;;;;;;;;;;;;;;9.29;72.09;99441.22;4684522;30;19962;-69
2022/01/29 13:39:55;;;;;;;;;;;;;;;9.33;73.33;99436.53;4685061;30;19964;-69
2022/01/29 13:42:26;;;;;;;;;;;;;;;9.24;71.04;99436.75;4685788;30;19980;-69
2022/01/29 13:45:08;;;;;;;;;;;;;;;9.07;72.19;99429.53;4681009;30;19953;-68
2022/01/29 13:47:37;;;;;;;;;;;;;;;8.88;69.32;99421.06;4683857;30;20339;-69
2022/01/29 13:50:28;;;;;;;;;;;;;;;8.88;69.34;99421.06;4685387;30;19968;-68
2022/01/29 13:53:03;;;;;;;;;;;;;;;8.88;68.47;99421.06;4688634;30;19959;-69
2022/01/29 13:55:31;;;;;;;;;;;;;;;8.94;68.19;99428.00;4672291;30;19951;-69
2022/01/29 13:58:08;;;;;;;;;;;;;;;8.82;68.92;99424.50;4685886;30;19991;-68
2022/01/29 14:00:51;;;;;;;;;;;;;;;8.80;69.47;99424.88;4685935;30;19952;-69
2022/01/29 14:03:19;;;;;;;;;;;;;;;8.72;71.58;99413.88;4685924;30;19970;-69
2022/01/29 14:05:47;;;;;;;;;;;;;;;8.68;72.32;99410.19;4686366;30;19960;-70
2022/01/29 14:08:20;;;;;;;;;;;;;;;8.64;74.66;99407.28;4685598;30;19957;-68
2022/01/29 14:10:55;;;;;;;;;;;;;;;8.65;77.41;99402.53;4685913;30;19958;-69
2022/01/29 14:13:27;;;;;;;;;;;;;;;8.58;77.40;99400.38;4686002;30;19950;-68
2022/01/29 14:15:54;;;;;;;;;;;;;;;8.50;78.37;99393.81;4684928;30;19962;-68
2022/01/29 14:18:30;;;;;;;;;;;;;;;8.47;78.60;99390.91;4685850;30;19949;-69
2022/01/29 14:20:58;;;;;;;;;;;;;;;8.40;78.32;99388.75;4684224;30;19965;-69
2022/01/29 14:23:25;;;;;;;;;;;;;;;8.37;77.27;99397.00;4683997;30;19976;-69
2022/01/29 14:26:00;;;;;;;;;;;;;;;8.38;76.96;99382.72;4683797;30;19955;-69
2022/01/29 14:28:28;;;;;;;;;;;;;;;8.42;76.71;99386.41;4682563;30;20261;-69
2022/01/29 14:30:55;;;;;;;;;;;;;;;8.23;76.67;99391.81;4685231;30;19963;-69
2022/01/29 14:33:22;;;;;;;;;;;;;;;8.20;75.23;99391.72;4685373;30;19954;-69
2022/01/29 14:35:52;;;;;;;;;;;;;;;8.20;73.62;99397.28;4685038;30;19959;-69
2022/01/29 14:38:20;;;;;;;;;;;;;;;8.20;72.79;99403.69;4684795;30;19980;-69
2022/01/29 14:40:47;;;;;;;;;;;;;;;8.14;74.92;99407.91;4684748;30;19956;-69
2022/01/29 14:43:14;;;;;;;;;;;;;;;8.18;75.51;99406.00;4683319;30;20455;-69
2022/01/29 14:45:42;;;;;;;;;;;;;;;8.20;76.28;99402.84;4683459;30;19985;-69
2022/01/29 14:48:09;;;;;;;;;;;;;;;8.23;77.77;99405.75;4696406;30;19953;-69
2022/01/29 14:50:36;;;;;;;;;;;;;;;8.17;79.65;99403.56;4682043;30;19955;-69
2022/01/29 14:53:04;;;;;;;;;;;;;;;8.15;80.09;99400.31;4667908;30;20417;-69
2022/01/29 14:55:31;;;;;;;;;;;;;;;8.12;82.39;99399.06;4682935;30;19960;-69
2022/01/29 14:57:58;;;;;;;;;;;;;;;8.10;84.55;99400.56;4684510;30;19956;-69
2022/01/29 15:00:26;;;;;;;;;;;;;;;8.16;82.02;99393.59;4684979;30;19959;-69
2022/01/29 15:02:53;;;;;;;;;;;;;;;7.97;86.86;99388.69;4684603;30;19980;-69
2022/01/29 15:05:21;;;;;;;;;;;;;;;8.06;85.08;99392.13;4684950;30;19958;-69
2022/01/29 15:07:48;;;;;;;;;;;;;;;7.93;89.06;99393.34;4684651;30;19957;-69
2022/01/29 15:10:15;;;;;;;;;;;;;;;7.85;92.42;99388.72;4684184;30;19963;-69
2022/01/29 15:12:42;;;;;;;;;;;;;;;7.81;95.23;99385.84;4685852;30;19957;-69
2022/01/29 15:15:10;;;;;;;;;;;;;;;7.73;96.76;99392.34;4684854;30;19973;-69
2022/01/29 15:17:37;;;;;;;;;;;;;;;7.64;97.01;99380.56;4684861;30;20271;-69
2022/01/29 15:20:07;;;;;;;;;;;;;;;7.70;96.40;99383.91;4688666;30;19956;-69
2022/01/29 15:22:36;;;;;;;;;;;;;;;7.64;96.56;99365.81;4684466;30;19998;-69
2022/01/29 15:25:03;;;;;;;;;;;;;;;7.58;97.38;99356.13;4684648;30;19960;-69
2022/01/29 15:27:31;;;;;;;;;;;;;;;7.46;98.38;99359.72;4684838;30;19955;-70
2022/01/29 15:30:02;;;;;;;;;;;;;;;7.45;99.33;99360.91;4685160;30;19950;-69
2022/01/29 15:32:31;;;;;;;;;;;;;;;7.45;100.00;99365.66;4683443;30;19957;-69
2022/01/29 15:34:58;;;;;;;;;;;;;;;7.45;99.93;99358.13;4684513;30;19966;-69
2022/01/29 15:37:26;;;;;;;;;;;;;;;7.38;100.00;99357.09;4690984;30;19961;-69
2022/01/29 15:39:53;;;;;;;;;;;;;;;7.37;100.00;99355.47;4684035;30;19954;-69
2022/01/29 15:42:28;;;;;;;;;;;;;;;7.35;100.00;99355.81;4684788;30;20257;-69
2022/01/29 15:44:55;;;;;;;;;;;;;;;7.25;100.00;99354.34;4684247;30;19965;-69
2022/01/29 15:47:22;;;;;;;;;;;;;;;7.19;100.00;99350.16;4684043;30;19958;-69
2022/01/29 15:49:50;;;;;;;;;;;;;;;7.09;100.00;99342.28;4683504;30;19956;-69
2022/01/29 15:52:17;;;;;;;;;;;;;;;7.06;98.79;99343.00;4684208;30;19960;-69
2022/01/29 15:54:45;;;;;;;;;;;;;;;7.05;92.71;99343.34;4683891;30;19968;-69
2022/01/29 15:57:12;;;;;;;;;;;;;;;7.12;92.17;99340.78;4683727;30;19964;-69
2022/01/29 15:59:40;;;;;;;;;;;;;;;7.11;93.77;99342.78;4683518;30;19958;-69
2022/01/29 16:02:07;;;;;;;;;;;;;;;7.05;95.03;99344.16;4683171;30;19958;-69
2022/01/29 16:04:35;;;;;;;;;;;;;;;6.95;95.37;99347.41;4684178;30;20389;-68
2022/01/29 16:07:02;;;;;;;;;;;;;;;6.86;96.65;99343.94;4683277;30;19955;-69
2022/01/29 16:09:29;;;;;;;;;;;;;;;6.79;95.53;99346.50;4683062;30;19980;-69
2022/01/29 16:12:00;;;;;;;;;;;;;;;6.73;92.56;99338.72;4683934;30;19958;-69
2022/01/29 16:14:28;;;;;;;;;;;;;;;6.71;94.23;99344.63;4680260;30;20556;-69
2022/01/29 16:16:55;;;;;;;;;;;;;;;6.72;94.88;99348.22;4684221;30;19963;-69
2022/01/29 16:19:22;;;;;;;;;;;;;;;6.66;93.12;99344.03;4684084;30;19991;-69
2022/01/29 16:21:50;;;;;;;;;;;;;;;6.65;92.39;99340.47;4683981;30;19956;-69